Main page
METAR-TAF:

METAR-TAF

Airports :

Mécheria Airport

Mécheria, Algeria

latitude: 34-56N, longitude: 000-26W, elevation: 1149 m

Current weather observation

The report was made 1 hour and 53 minutes ago, at 23:00 UTC
Wind 14 kt from the North
Temperature 15°C
Humidity 67%
Pressure 1024 hPa
Visibility 10 km or more
no clouds below 1500 m and no cumulonimbus

METAR: DAAY 252300Z 01014KT CAVOK 15/09 Q1024

Time: 01:53 (00:53 UTC)

Forecast

The report was made 1 hour and 53 minutes ago, at 23:00 UTC
Forecast valid from 26 at 00 UTC to 26 at 09 UTC
Wind 14 kt from the North
Visibility 10 km or more
no clouds below 1500 m and no cumulonimbus

TAF: DAAY 252300Z 2600/2609 36014KT CAVOK

Weather observations and forecasts of more than 4000 airports (METAR and TAF reports).

The available stations are represented by yellow and red dots on the map.

Hover mouse over dot to see the name of the station.

Then click to see weather observations and forecasts.

To change the map : click on the green buttons with a black cross to zoom in, on the green button with a dash to zoom out, or on the green arrows for adjacent maps.


METAR-TAF: